Time;durP1;ratioP1;P1;durP2;ratioP2;P2;SDS_P1;SDS_P2;PMS_P1;PMS_P2;Temp;Humidity;BMP_temperature;BMP_pressure;BME280_temperature;BME280_humidity;BME280_pressure;Samples;Min_cycle;Max_cycle;Signal;HPM_P1;HPM_P2
2022/01/29 00:00:26;;;;;;;27.10;5.50;;;;;;;2.34;80.58;101264.94;5049632;28;20040;-89
2022/01/29 00:02:54;;;;;;;28.05;3.83;;;;;;;2.33;80.75;101260.63;5059278;28;20033;-86
2022/01/29 00:05:26;;;;;;;32.13;5.05;;;;;;;2.34;80.52;101258.03;5057500;28;20043;-89
2022/01/29 00:08:01;;;;;;;23.77;4.43;;;;;;;2.33;80.55;101240.75;5049557;28;20524;-88
2022/01/29 00:10:32;;;;;;;22.42;3.38;;;;;;;2.34;80.24;101239.06;5054870;28;20039;-89
2022/01/29 00:12:58;;;;;;;31.88;4.40;;;;;;;2.34;80.33;101242.50;5050056;28;20032;-88
2022/01/29 00:15:33;;;;;;;35.00;4.28;;;;;;;2.36;80.20;101239.88;5054278;28;20031;-88
2022/01/29 00:18:17;;;;;;;26.90;4.82;;;;;;;2.37;80.00;101242.44;5060476;28;20032;-89
2022/01/29 00:21:07;;;;;;;30.65;3.80;;;;;;;2.38;80.12;101226.03;5076615;28;20028;-89
2022/01/29 00:23:42;;;;;;;21.98;3.63;;;;;;;2.38;79.77;101223.44;5059925;28;20061;-89
2022/01/29 00:26:10;;;;;;;21.48;3.67;;;;;;;2.41;79.88;101223.38;5050107;28;20150;-88
2022/01/29 00:28:38;;;;;;;20.38;3.72;;;;;;;2.42;80.01;101222.50;5060569;28;20093;-89
2022/01/29 00:31:11;;;;;;;34.72;4.07;;;;;;;2.46;79.87;101236.25;5049238;28;20108;-89
2022/01/29 00:36:44;;;;;;;18.63;3.72;;;;;;;2.48;79.25;101242.22;5045332;28;20049;-90
2022/01/29 00:39:12;;;;;;;28.73;4.75;;;;;;;2.52;78.75;101250.78;5046953;28;20039;-88
2022/01/29 00:41:44;;;;;;;15.57;3.10;;;;;;;2.55;78.79;101246.41;5054446;28;20338;-88
2022/01/29 00:44:17;;;;;;;31.00;3.97;;;;;;;2.57;78.80;101236.91;5055207;28;20033;-89
2022/01/29 00:46:48;;;;;;;25.00;3.42;;;;;;;2.59;78.65;101235.13;5042478;28;20047;-87
2022/01/29 00:49:14;;;;;;;19.15;3.58;;;;;;;2.59;78.71;101229.09;5045886;28;20029;-89
2022/01/29 00:51:45;;;;;;;22.60;4.53;;;;;;;2.60;78.62;101236.00;5057100;28;20038;-89
2022/01/29 00:54:31;;;;;;;;;;;;;;;;;;;;;
2022/01/29 00:56:56;;;;;;;21.48;4.40;;;;;;;2.56;79.09;101235.19;5054301;28;20104;-88
2022/01/29 00:59:22;;;;;;;18.73;4.20;;;;;;;2.53;79.21;101237.84;5050767;28;20056;-89
2022/01/29 01:01:48;;;;;;;25.15;3.35;;;;;;;2.51;79.53;101237.00;5051299;28;20029;-88
2022/01/29 01:04:14;;;;;;;19.38;3.80;;;;;;;2.50;79.48;101229.28;5050949;28;20055;-88
2022/01/29 01:06:40;;;;;;;30.73;4.30;;;;;;;2.49;79.81;101219.81;5063670;28;20004;-88
2022/01/29 01:09:05;;;;;;;30.33;4.28;;;;;;;2.48;80.00;101220.66;5069494;28;20048;-88
2022/01/29 01:11:31;;;;;;;23.20;4.13;;;;;;;2.47;79.79;101201.69;5064750;28;20148;-89
2022/01/29 01:13:56;;;;;;;21.73;4.28;;;;;;;2.46;79.85;101202.59;5062561;28;20051;-88
2022/01/29 01:16:25;;;;;;;32.70;5.40;;;;;;;2.46;79.66;101207.78;5063758;28;20159;-88
2022/01/29 01:18:50;;;;;;;26.45;6.03;;;;;;;2.49;80.19;101199.09;5068401;28;20044;-89
2022/01/29 01:21:16;;;;;;;29.85;5.07;;;;;;;2.47;79.80;101195.69;5069002;28;20112;-89
2022/01/29 01:23:44;;;;;;;18.77;5.07;;;;;;;2.49;79.79;101196.50;5053975;28;20048;-90
2022/01/29 01:26:12;;;;;;;27.35;4.25;;;;;;;2.50;79.66;101180.94;5051028;28;20040;-88
2022/01/29 01:28:41;;;;;;;30.30;3.95;;;;;;;2.50;79.48;101167.16;5043121;28;20040;-89
2022/01/29 01:31:14;;;;;;;16.52;3.63;;;;;;;2.52;79.90;101167.94;5048366;28;20033;-89
2022/01/29 01:33:44;;;;;;;19.10;3.50;;;;;;;2.51;80.02;101161.06;5057072;28;20370;-89
2022/01/29 01:36:13;;;;;;;19.10;3.65;;;;;;;2.52;79.66;101155.00;5054957;28;20518;-89
2022/01/29 01:38:48;;;;;;;30.08;4.75;;;;;;;2.52;79.80;101155.88;5055766;28;20045;-88
2022/01/29 01:41:21;;;;;;;25.23;3.55;;;;;;;2.55;79.61;101142.00;5055362;28;20116;-89
2022/01/29 01:43:50;;;;;;;23.65;3.58;;;;;;;2.53;79.71;101147.22;5047606;28;20124;-89
2022/01/29 01:46:23;;;;;;;22.07;3.63;;;;;;;2.54;79.89;101135.13;5043137;28;20041;-88
2022/01/29 01:48:49;;;;;;;24.65;4.25;;;;;;;2.56;79.75;101135.94;5056021;28;20265;-88
2022/01/29 01:51:14;;;;;;;30.20;4.55;;;;;;;2.58;79.65;101134.19;5054222;28;20033;-88
2022/01/29 01:53:42;;;;;;;23.48;4.10;;;;;;;2.61;79.77;101134.13;5054710;28;20397;-88
2022/01/29 01:56:10;;;;;;;25.13;3.80;;;;;;;2.61;80.01;101118.59;5046856;28;20127;-89
2022/01/29 01:58:40;;;;;;;38.17;3.80;;;;;;;2.63;79.94;101116.81;5054649;28;20112;-89
2022/01/29 02:01:08;;;;;;;27.80;3.97;;;;;;;2.63;79.93;101106.47;5054800;28;20032;-89
2022/01/29 02:03:33;;;;;;;25.60;4.67;;;;;;;2.62;79.79;101090.06;5044142;28;20029;-90
2022/01/29 02:06:01;;;;;;;26.25;4.53;;;;;;;2.63;79.64;101094.38;5045695;28;20045;-88
2022/01/29 02:08:30;;;;;;;29.00;3.70;;;;;;;2.64;79.63;101084.88;5058135;28;20037;-89
2022/01/29 02:11:08;;;;;;;24.80;4.50;;;;;;;2.69;79.79;101087.38;5056171;28;20493;-89
2022/01/29 02:13:36;;;;;;;23.30;3.97;;;;;;;2.72;79.27;101074.34;5053715;28;20125;-88
2022/01/29 02:16:05;;;;;;;19.83;3.95;;;;;;;2.77;79.36;101072.50;5054668;28;20024;-89
2022/01/29 02:18:35;;;;;;;23.02;3.88;;;;;;;2.81;79.11;101063.78;5055053;28;20013;-90
2022/01/29 02:21:02;;;;;;;25.17;4.90;;;;;;;2.84;78.89;101063.72;5053950;28;20036;-88
2022/01/29 02:23:33;;;;;;;19.77;4.28;;;;;;;2.86;78.89;101056.78;5054074;28;20029;-90
2022/01/29 02:26:01;;;;;;;19.75;3.83;;;;;;;2.85;79.15;101058.50;5047124;28;20083;-88
2022/01/29 02:28:27;;;;;;;20.00;4.82;;;;;;;2.89;78.96;101056.69;5036691;28;20093;-89
2022/01/29 02:31:00;;;;;;;23.13;4.72;;;;;;;2.91;78.82;101054.91;5053936;28;20446;-88
2022/01/29 02:33:35;;;;;;;14.23;3.35;;;;;;;2.92;78.38;101049.69;5056479;28;20029;-89
2022/01/29 02:36:02;;;;;;;20.45;4.55;;;;;;;2.94;78.36;101046.25;5037160;28;20033;-89
2022/01/29 02:38:32;;;;;;;16.40;3.78;;;;;;;2.94;78.69;101052.25;5075109;28;20049;-89
2022/01/29 02:41:06;;;;;;;18.20;3.55;;;;;;;2.96;78.50;101045.28;5058568;28;20041;-89
2022/01/29 02:43:40;;;;;;;18.33;4.25;;;;;;;2.99;78.28;101047.81;5074711;28;20020;-89
2022/01/29 02:46:18;;;;;;;22.08;3.88;;;;;;;3.04;78.19;101038.22;5071518;28;20033;-88
2022/01/29 02:48:45;;;;;;;23.63;4.50;;;;;;;3.08;78.02;101037.25;5054123;28;20029;-88
2022/01/29 02:51:10;;;;;;;29.25;4.15;;;;;;;3.12;77.59;101027.66;5043783;28;20537;-88
2022/01/29 02:53:36;;;;;;;19.70;4.30;;;;;;;3.15;77.66;101030.16;5053997;28;20041;-87
2022/01/29 02:56:02;;;;;;;14.63;3.72;;;;;;;3.22;77.51;101033.47;5052554;28;20064;-89
2022/01/29 02:58:30;;;;;;;13.68;3.78;;;;;;;3.25;77.43;101012.66;5053762;28;20057;-87
2022/01/29 03:00:56;;;;;;;16.98;3.53;;;;;;;3.27;77.43;101010.88;5052494;28;20090;-88
2022/01/29 03:03:24;;;;;;;21.45;4.00;;;;;;;3.28;77.16;101002.22;5055567;28;20029;-88
2022/01/29 03:05:50;;;;;;;32.70;4.70;;;;;;;3.30;77.15;100996.13;5059633;28;20029;-87
2022/01/29 03:08:15;;;;;;;22.08;4.63;;;;;;;3.28;77.05;100987.50;5056217;28;20461;-87
2022/01/29 03:10:41;;;;;;;16.45;4.68;;;;;;;3.30;77.29;100985.75;5053556;28;20021;-87
2022/01/29 03:13:06;;;;;;;22.25;3.67;;;;;;;3.31;77.33;100973.63;5052578;28;20025;-88
2022/01/29 03:15:32;;;;;;;19.05;3.75;;;;;;;3.35;77.28;100967.47;5052782;28;20024;-88
2022/01/29 03:17:58;;;;;;;18.63;3.88;;;;;;;3.34;77.20;100966.63;5044549;28;20048;-87
2022/01/29 03:20:23;;;;;;;21.90;4.47;;;;;;;3.39;76.89;100966.50;5052290;28;20037;-88
2022/01/29 03:22:49;;;;;;;19.15;3.70;;;;;;;3.43;76.95;100972.47;5054727;28;20060;-88
2022/01/29 03:25:17;;;;;;;20.35;4.20;;;;;;;3.47;76.79;100968.88;5052726;28;20043;-89
2022/01/29 03:27:43;;;;;;;16.53;3.73;;;;;;;3.50;76.84;100961.88;5053882;28;20207;-88
2022/01/29 03:30:09;;;;;;;20.70;4.30;;;;;;;3.50;76.76;100959.28;5050811;28;20139;-88
2022/01/29 03:32:35;;;;;;;20.00;5.95;;;;;;;3.52;76.93;100946.28;5061796;28;20037;-87
2022/01/29 03:35:01;;;;;;;18.23;3.65;;;;;;;3.54;76.91;100945.34;5068671;28;20047;-86
2022/01/29 03:37:26;;;;;;;19.25;4.13;;;;;;;3.58;76.96;100944.38;5061872;28;20064;-89
2022/01/29 03:39:57;;;;;;;15.00;3.90;;;;;;;3.64;76.34;100941.63;5064457;28;20082;-88
2022/01/29 03:42:23;;;;;;;18.10;3.63;;;;;;;3.69;76.72;100935.44;5065918;28;20062;-85
2022/01/29 03:44:51;;;;;;;18.35;3.50;;;;;;;3.69;76.50;100936.28;5051996;28;20068;-88
2022/01/29 03:47:19;;;;;;;21.85;3.92;;;;;;;3.71;76.53;100933.63;5051130;28;20116;-87
2022/01/29 03:49:48;;;;;;;23.13;4.10;;;;;;;3.73;76.85;100922.34;5050484;28;20033;-87
2022/01/29 03:52:13;;;;;;;21.35;5.35;;;;;;;3.74;76.90;100928.38;5053551;28;20048;-88
2022/01/29 03:54:40;;;;;;;17.02;4.30;;;;;;;3.72;76.72;100914.63;5053091;28;20037;-89
2022/01/29 03:57:05;;;;;;;13.77;3.70;;;;;;;3.73;76.69;100917.16;5051915;28;20041;-89
2022/01/29 03:59:31;;;;;;;13.88;3.70;;;;;;;3.72;77.34;100909.44;5054056;28;20503;-88
2022/01/29 04:01:56;;;;;;;20.30;4.53;;;;;;;3.69;77.48;100899.97;5050227;28;20032;-89
2022/01/29 04:04:22;;;;;;;13.93;3.35;;;;;;;3.66;77.83;100905.25;5060094;28;20102;-88
2022/01/29 04:06:49;;;;;;;18.55;3.72;;;;;;;3.66;77.95;100894.03;5053587;28;20021;-88
2022/01/29 04:09:18;;;;;;;14.68;3.38;;;;;;;3.63;78.20;100888.06;5059553;28;20056;-89
2022/01/29 04:11:44;;;;;;;;;;;;;;;3.61;79.11;100882.06;5052010;28;20155;-89
2022/01/29 04:14:20;;;;;;;20.75;3.85;;;;;;;3.60;79.15;100879.53;5051646;28;20008;-89
2022/01/29 04:16:45;;;;;;;18.75;4.00;;;;;;;3.56;79.46;100873.56;5051449;28;20053;-89
2022/01/29 04:19:12;;;;;;;18.80;4.03;;;;;;;3.54;79.46;100866.72;5050908;28;20472;-90
2022/01/29 04:21:48;;;;;;;14.93;3.90;;;;;;;3.53;79.25;100867.63;5052044;28;20052;-89
2022/01/29 04:24:13;;;;;;;23.95;5.03;;;;;;;3.50;79.20;100852.16;5051494;28;20702;-89
2022/01/29 04:26:39;;;;;;;19.73;4.82;;;;;;;3.47;79.40;100850.47;5051429;28;20120;-88
2022/01/29 04:29:12;;;;;;;26.95;10.70;;;;;;;3.44;79.63;100847.97;5051412;28;20040;-87
2022/01/29 04:31:57;;;;;;;18.90;3.67;;;;;;;3.45;79.25;100839.31;5050458;28;20036;-88
2022/01/29 04:34:22;;;;;;;19.63;3.60;;;;;;;3.47;79.84;100828.91;5041365;28;20028;-87
2022/01/29 04:36:48;;;;;;;16.80;4.30;;;;;;;3.45;79.61;100831.53;5053314;28;20032;-87
2022/01/29 04:39:16;;;;;;;12.40;3.58;;;;;;;3.47;79.40;100826.31;5053212;28;20504;-88
2022/01/29 04:41:42;;;;;;;17.33;3.53;;;;;;;3.46;79.50;100825.47;5051958;28;20044;-88
2022/01/29 04:44:11;;;;;;;17.13;4.22;;;;;;;3.45;79.58;100822.88;5052352;28;20041;-88
2022/01/29 04:46:36;;;;;;;15.50;3.95;;;;;;;3.46;79.52;100820.28;5053144;28;20029;-89
2022/01/29 04:49:02;;;;;;;17.45;3.80;;;;;;;3.46;79.94;100812.50;5053435;28;20021;-89
2022/01/29 04:51:28;;;;;;;14.10;3.70;;;;;;;3.47;80.14;100814.19;5054652;28;20020;-89
2022/01/29 04:53:55;;;;;;;15.50;4.35;;;;;;;3.49;79.89;100801.19;5064207;28;20057;-88
2022/01/29 04:56:23;;;;;;;16.63;3.72;;;;;;;3.50;79.98;100808.91;5061877;28;20029;-88
2022/01/29 04:58:52;;;;;;;13.73;4.93;;;;;;;3.49;79.77;100796.84;5046256;28;20138;-88
2022/01/29 05:01:17;;;;;;;17.27;4.00;;;;;;;3.52;79.76;100798.50;5051863;28;20037;-88
2022/01/29 05:03:43;;;;;;;24.17;4.45;;;;;;;3.54;80.19;100794.97;5051071;28;20022;-88
2022/01/29 05:06:10;;;;;;;16.27;4.20;;;;;;;3.55;79.71;100788.88;5054295;28;20087;-88
2022/01/29 05:08:39;;;;;;;16.33;5.55;;;;;;;3.55;79.93;100791.47;5056952;28;20045;-87
2022/01/29 05:11:06;;;;;;;23.35;4.38;;;;;;;3.56;79.92;100793.19;5058589;28;20040;-88
2022/01/29 05:13:34;;;;;;;15.35;4.05;;;;;;;3.59;79.91;100787.03;5053775;28;20135;-88
2022/01/29 05:16:27;;;;;;;16.20;4.93;;;;;;;3.61;79.68;100780.91;5054505;28;20039;-89
2022/01/29 05:27:04;;;;;;;17.67;4.90;;;;;;;3.73;80.04;100776.25;5048526;28;20383;-88
2022/01/29 05:29:36;;;;;;;16.85;4.63;;;;;;;3.77;80.09;100767.47;5056812;28;20716;-88
2022/01/29 05:32:12;;;;;;;8.63;4.28;;;;;;;3.80;80.38;100757.88;5056471;28;20128;-88
2022/01/29 05:34:40;;;;;;;17.25;5.07;;;;;;;3.83;81.12;100755.19;5054967;28;20453;-88
2022/01/29 05:37:08;;;;;;;15.98;4.38;;;;;;;3.85;81.16;100743.00;5056161;28;20028;-88
2022/01/29 05:39:34;;;;;;;10.23;5.13;;;;;;;3.88;81.45;100737.72;5057988;28;20017;-88
2022/01/29 05:41:59;;;;;;;13.57;4.93;;;;;;;3.88;81.74;100742.06;5056551;28;20031;-86
2022/01/29 05:44:25;;;;;;;15.90;5.40;;;;;;;3.93;81.84;100739.31;5057007;28;20044;-87
2022/01/29 05:46:51;;;;;;;12.18;4.80;;;;;;;3.96;82.09;100744.41;5055267;28;20052;-87
2022/01/29 05:49:18;;;;;;;14.07;5.18;;;;;;;3.97;81.67;100721.03;5055661;28;20116;-88
2022/01/29 05:51:43;;;;;;;16.85;5.93;;;;;;;4.01;81.99;100717.41;5056890;28;20070;-87
2022/01/29 05:54:08;;;;;;;10.77;5.00;;;;;;;4.03;82.00;100713.00;5063499;28;20064;-88
2022/01/29 05:56:34;;;;;;;21.33;6.25;;;;;;;4.04;82.28;100708.66;5066363;28;20033;-87
2022/01/29 05:58:59;;;;;;;12.10;5.75;;;;;;;4.05;82.63;100694.81;5074825;28;20069;-88
2022/01/29 06:01:25;;;;;;;14.38;6.22;;;;;;;4.08;83.17;100705.09;5071997;28;20082;-87
2022/01/29 06:03:51;;;;;;;15.20;6.70;;;;;;;4.08;83.22;100695.56;5074745;28;20017;-87
2022/01/29 06:06:16;;;;;;;15.80;6.57;;;;;;;4.08;84.00;100700.75;5075162;28;20032;-87
2022/01/29 06:08:42;;;;;;;16.58;6.57;;;;;;;4.21;84.70;100689.94;5077904;28;20032;-87
2022/01/29 06:11:10;;;;;;;13.10;6.32;;;;;;;4.23;85.15;100685.56;5075582;28;20053;-89
2022/01/29 06:13:35;;;;;;;18.75;7.00;;;;;;;4.17;86.26;100686.59;5073865;28;20033;-87
2022/01/29 06:16:03;;;;;;;11.13;6.07;;;;;;;4.11;86.90;100677.25;5059562;28;20113;-88
2022/01/29 06:18:31;;;;;;;16.20;6.60;;;;;;;4.05;86.77;100684.44;5071087;28;20027;-87
2022/01/29 06:21:04;;;;;;;12.68;6.38;;;;;;;4.03;87.18;100699.19;5068709;28;20047;-88
2022/01/29 06:23:39;;;;;;;15.57;6.78;;;;;;;4.00;88.18;100655.19;5060139;28;20040;-87
2022/01/29 06:26:09;;;;;;;14.50;6.93;;;;;;;3.94;89.23;100652.81;5043218;28;20491;-88
2022/01/29 06:28:44;;;;;;;15.38;7.15;;;;;;;3.90;89.69;100646.88;5055153;28;20086;-88
2022/01/29 06:31:15;;;;;;;16.63;7.40;;;;;;;3.85;89.80;100649.59;5050220;28;21547;-88
2022/01/29 06:33:41;;;;;;;15.70;6.85;;;;;;;3.84;89.64;100645.31;5054363;28;20112;-88
2022/01/29 06:36:06;;;;;;;17.15;6.95;;;;;;;3.85;89.93;100641.81;5044127;28;20065;-88
2022/01/29 06:38:37;;;;;;;20.67;8.30;;;;;;;3.84;90.97;100644.47;5044097;28;20053;-87
2022/01/29 06:41:03;;;;;;;15.68;8.20;;;;;;;3.82;91.46;100644.53;5052885;28;20066;-87
2022/01/29 06:43:38;;;;;;;17.05;7.38;;;;;;;3.81;91.72;100644.59;5051734;28;20124;-88
2022/01/29 06:46:03;;;;;;;16.15;7.22;;;;;;;3.79;91.97;100620.47;5051044;28;20497;-88
2022/01/29 06:48:29;;;;;;;23.20;9.15;;;;;;;3.77;92.84;100611.88;5053384;28;20098;-89
2022/01/29 06:51:00;;;;;;;16.58;8.02;;;;;;;3.75;92.72;100606.75;5052214;28;20106;-87
2022/01/29 06:53:38;;;;;;;18.27;8.38;;;;;;;3.81;93.22;100592.69;5048466;28;20033;-87
2022/01/29 06:56:23;;;;;;;17.95;8.07;;;;;;;3.83;92.91;100594.34;5052324;28;20493;-88
2022/01/29 06:58:51;;;;;;;20.23;8.25;;;;;;;3.85;93.55;100597.72;5042586;28;20029;-89
2022/01/29 07:01:27;;;;;;;18.45;8.20;;;;;;;3.88;93.03;100596.78;5041916;28;20042;-87
2022/01/29 07:04:05;;;;;;;16.45;8.40;;;;;;;3.87;92.94;100587.31;5033470;28;20029;-87
2022/01/29 07:06:30;;;;;;;16.05;7.78;;;;;;;3.93;92.69;100596.63;5034344;28;20017;-84
2022/01/29 07:08:58;;;;;;;15.65;8.15;;;;;;;3.97;92.18;100601.69;5040891;28;20025;-88
2022/01/29 07:11:33;;;;;;;17.00;8.03;;;;;;;3.98;92.60;100594.72;5050589;28;20036;-88
2022/01/29 07:14:03;;;;;;;16.45;8.00;;;;;;;3.96;91.99;100605.16;5037639;28;20331;-89
2022/01/29 07:16:30;;;;;;;14.77;7.03;;;;;;;4.03;92.00;100604.03;5034470;28;20119;-89
2022/01/29 07:18:58;;;;;;;14.60;7.22;;;;;;;4.07;92.35;100594.41;5035121;28;20037;-89
2022/01/29 07:21:26;;;;;;;18.38;8.00;;;;;;;4.09;91.22;100588.25;5049849;28;20021;-89
2022/01/29 07:23:52;;;;;;;14.27;7.03;;;;;;;4.09;91.57;100587.41;5055001;28;20056;-88
2022/01/29 07:26:17;;;;;;;16.88;7.47;;;;;;;3.98;91.76;100573.97;5046692;28;20044;-88
2022/01/29 07:28:46;;;;;;;18.00;7.40;;;;;;;3.91;91.92;100577.69;5053011;28;20029;-90
2022/01/29 07:31:21;;;;;;;13.30;7.65;;;;;;;3.90;92.19;100576.84;5047578;28;20359;-87
2022/01/29 07:33:47;;;;;;;15.70;7.82;;;;;;;3.88;92.37;100569.09;5053517;28;20040;-87
2022/01/29 07:36:17;;;;;;;17.80;8.13;;;;;;;3.88;92.69;100565.66;5051727;28;20029;-88
2022/01/29 07:38:42;;;;;;;16.48;6.88;;;;;;;3.87;92.29;100569.16;5043520;28;20041;-87
2022/01/29 07:41:08;;;;;;;14.88;7.97;;;;;;;3.85;92.22;100565.75;5051958;28;20098;-87
2022/01/29 07:43:39;;;;;;;11.50;6.38;;;;;;;3.86;92.16;100573.50;5051590;28;20039;-87
2022/01/29 07:46:09;;;;;;;14.35;7.25;;;;;;;3.84;92.36;100570.09;5050829;28;20032;-88
2022/01/29 07:48:35;;;;;;;14.82;6.93;;;;;;;3.84;91.88;100557.13;5050274;28;20064;-88
2022/01/29 07:51:00;;;;;;;13.90;7.00;;;;;;;3.84;91.52;100551.94;5052050;28;20122;-88
2022/01/29 07:53:39;;;;;;;17.90;6.97;;;;;;;3.87;91.78;100548.41;5057583;28;20130;-89
2022/01/29 07:56:08;;;;;;;14.82;7.30;;;;;;;3.88;91.35;100544.91;5054748;28;20033;-88
2022/01/29 07:58:38;;;;;;;16.02;8.00;;;;;;;3.87;91.56;100536.28;5036046;28;20149;-87
2022/01/29 08:01:04;;;;;;;15.82;6.60;;;;;;;3.88;91.53;100532.78;5039914;28;20036;-87
2022/01/29 08:03:30;;;;;;;13.52;6.38;;;;;;;3.88;91.87;100537.97;5052338;28;20020;-88
2022/01/29 08:05:55;;;;;;;16.25;6.90;;;;;;;3.88;91.80;100535.38;5051464;28;20124;-87
2022/01/29 08:08:21;;;;;;;13.10;6.93;;;;;;;3.89;91.51;100531.03;5040587;28;20048;-88
2022/01/29 08:10:52;;;;;;;15.40;7.15;;;;;;;3.92;91.18;100522.31;5050978;28;20047;-87
2022/01/29 08:13:18;;;;;;;17.58;7.60;;;;;;;3.92;91.12;100519.72;5041884;28;20047;-90
2022/01/29 08:15:47;;;;;;;12.93;6.75;;;;;;;3.94;91.72;100503.19;5064843;28;20024;-89
2022/01/29 08:18:12;;;;;;;11.88;6.47;;;;;;;3.94;91.58;100504.94;5041875;28;20053;-89
2022/01/29 08:20:43;;;;;;;14.00;6.63;;;;;;;3.96;91.75;100511.75;5051656;28;20052;-89
2022/01/29 08:23:32;;;;;;;27.83;17.83;;;;;;;3.97;91.93;100508.28;5040828;28;20033;-90
2022/01/29 08:26:02;;;;;;;12.40;6.35;;;;;;;4.02;91.57;100508.09;5032585;28;20138;-90
2022/01/29 08:28:30;;;;;;;12.35;6.13;;;;;;;4.01;91.97;100502.06;5016398;28;20115;-88
2022/01/29 08:30:59;;;;;;;13.63;6.53;;;;;;;4.02;92.00;100492.53;5032939;28;20025;-88
2022/01/29 08:33:25;;;;;;;12.02;6.45;;;;;;;4.03;91.67;100484.69;5031070;28;20025;-88
2022/01/29 08:35:52;;;;;;;17.17;6.60;;;;;;;4.04;91.63;100481.22;5038006;28;20044;-89
2022/01/29 08:39:19;;;;;;;15.32;7.40;;;;;;;4.09;91.64;100481.88;5034686;28;20047;-87
2022/01/29 08:41:47;;;;;;;12.15;5.95;;;;;;;4.13;91.80;100478.25;5032424;28;20168;-88
2022/01/29 08:44:12;;;;;;;10.25;5.72;;;;;;;4.17;91.34;100485.94;5062230;28;20033;-86
2022/01/29 08:46:38;;;;;;;14.23;6.97;;;;;;;4.18;90.84;100470.28;5059500;28;20128;-88
2022/01/29 08:49:09;;;;;;;14.52;6.40;;;;;;;4.25;90.78;100476.09;5056369;28;20039;-89
2022/01/29 08:51:36;;;;;;;13.18;5.45;;;;;;;4.28;89.80;100476.00;5061525;28;20025;-92
2022/01/29 08:54:04;;;;;;;12.77;6.30;;;;;;;4.32;90.05;100478.41;5064047;28;20045;-91
2022/01/29 08:56:44;;;;;;;12.75;6.35;;;;;;;4.35;89.98;100462.72;5059733;28;20113;-90
2022/01/29 08:59:12;;;;;;;10.32;6.05;;;;;;;4.39;89.93;100470.41;5042389;28;20033;-91
2022/01/29 09:01:38;;;;;;;13.33;6.23;;;;;;;4.43;89.72;100470.22;5052379;28;20053;-89
2022/01/29 09:04:03;;;;;;;16.65;5.95;;;;;;;4.44;89.92;100469.28;5056556;28;20025;-90
2022/01/29 09:06:34;;;;;;;12.48;6.05;;;;;;;4.50;89.25;100474.25;5057879;28;20025;-90
2022/01/29 09:09:05;;;;;;;14.27;6.07;;;;;;;4.57;89.07;100461.88;5028744;28;20029;-89
2022/01/29 09:11:34;;;;;;;12.60;5.95;;;;;;;4.60;88.68;100462.63;5051837;28;20033;-89
2022/01/29 09:14:05;;;;;;;9.77;5.38;;;;;;;4.66;88.89;100469.31;5042292;28;20128;-88
2022/01/29 09:16:38;;;;;;;11.50;5.38;;;;;;;4.74;88.58;100461.22;5051000;28;20033;-87
2022/01/29 09:19:07;;;;;;;13.88;6.47;;;;;;;4.75;88.80;100445.56;5050970;28;20025;-88
2022/01/29 09:21:35;;;;;;;9.82;5.07;;;;;;;4.77;88.45;100441.16;5058671;28;20025;-88
2022/01/29 09:24:07;;;;;;;9.95;5.13;;;;;;;4.85;88.78;100444.28;5078273;28;20045;-89
2022/01/29 09:26:51;;;;;;;12.55;5.47;;;;;;;4.91;88.47;100439.75;5057945;28;20071;-90
2022/01/29 09:29:21;;;;;;;11.57;5.95;;;;;;;4.95;88.41;100429.16;5062253;28;20135;-90
2022/01/29 09:31:55;;;;;;;12.35;4.88;;;;;;;5.01;88.08;100425.47;5040759;28;20113;-89
2022/01/29 09:34:25;;;;;;;11.80;5.68;;;;;;;5.05;88.02;100429.63;5029162;28;20052;-90
2022/01/29 09:37:01;;;;;;;7.90;4.70;;;;;;;5.10;87.83;100418.13;5025550;28;20037;-89
2022/01/29 09:39:29;;;;;;;9.27;5.13;;;;;;;5.16;87.84;100422.22;5035101;28;20033;-90
2022/01/29 09:41:57;;;;;;;12.45;6.13;;;;;;;5.19;87.52;100405.63;5030527;28;20038;-90
2022/01/29 09:44:51;;;;;;;9.80;5.50;;;;;;;5.25;87.38;100406.22;5029987;28;20095;-90
2022/01/29 09:47:17;;;;;;;11.25;5.55;;;;;;;5.40;87.13;100411.69;5035990;28;20041;-90
2022/01/29 09:50:25;;;;;;;8.02;4.40;;;;;;;5.51;86.71;100417.25;5035991;28;20179;-88
2022/01/29 09:52:53;;;;;;;9.63;4.38;;;;;;;5.58;85.92;100411.72;5052601;28;20071;-89
2022/01/29 09:55:22;;;;;;;9.93;4.97;;;;;;;5.61;86.34;100408.13;5042270;28;20037;-88
2022/01/29 09:58:14;;;;;;;;;;;;;;;5.62;86.75;100409.81;5058173;28;20416;-90
2022/01/29 10:00:55;;;;;;;9.02;4.82;;;;;;;5.65;86.24;100408.84;5042579;28;19913;-89
2022/01/29 10:03:22;;;;;;;11.13;4.75;;;;;;;5.68;86.08;100408.72;5025991;28;20037;-90
2022/01/29 10:06:04;;;;;;;8.30;4.28;;;;;;;5.66;86.47;100400.97;5040425;28;20056;-88
2022/01/29 10:08:52;;;;;;;8.88;4.72;;;;;;;5.68;86.40;100406.97;5048614;28;20068;-91
2022/01/29 10:11:38;;;;;;;9.95;5.63;;;;;;;5.71;86.45;100400.75;5032673;28;20049;-90
2022/01/29 10:14:09;;;;;;;7.97;4.53;;;;;;;5.82;86.27;100406.31;5051336;28;20063;-89
2022/01/29 10:16:41;;;;;;;8.57;4.78;;;;;;;5.93;85.75;100385.91;5045413;28;20037;-89
2022/01/29 10:19:13;;;;;;;9.15;4.28;;;;;;;6.04;85.49;100393.19;5044538;28;20043;-89
2022/01/29 10:21:43;;;;;;;11.13;4.80;;;;;;;6.09;85.55;100374.78;5056233;28;20067;-90
2022/01/29 10:24:15;;;;;;;8.18;4.07;;;;;;;6.13;85.07;100371.13;5043865;28;20037;-88
2022/01/29 10:26:55;;;;;;;8.55;4.35;;;;;;;6.15;84.91;100364.91;5056506;28;20048;-90
2022/01/29 10:29:30;;;;;;;7.05;4.35;;;;;;;6.21;85.38;100351.59;5038655;28;20040;-91
2022/01/29 10:31:59;;;;;;;7.90;4.03;;;;;;;6.24;85.03;100372.28;5033755;28;20033;-89
2022/01/29 10:34:59;;;;;;;;;;;;;;;6.25;85.00;100336.66;5035612;28;20045;-90
2022/01/29 10:37:55;;;;;;;6.15;3.50;;;;;;;6.27;84.08;100346.09;5056205;28;19913;-89
2022/01/29 10:40:27;;;;;;;8.75;3.80;;;;;;;6.35;84.30;100350.09;5038816;28;20029;-89
2022/01/29 10:43:00;;;;;;;6.25;3.38;;;;;;;6.35;84.28;100329.28;5040892;28;20048;-89
2022/01/29 10:45:35;;;;;;;6.00;2.95;;;;;;;6.36;83.46;100312.72;5047380;28;20468;-89
2022/01/29 10:48:10;;;;;;;6.78;3.35;;;;;;;6.41;83.33;100323.75;5046299;28;20041;-86
2022/01/29 10:50:40;;;;;;;6.80;3.88;;;;;;;6.43;84.09;100325.38;5033622;28;20043;-91
2022/01/29 10:53:44;;;;;;;6.68;3.45;;;;;;;6.42;83.22;100322.84;5049334;28;20486;-88
2022/01/29 10:56:28;;;;;;;6.72;3.35;;;;;;;6.47;83.65;100316.47;5058806;28;20048;-89
2022/01/29 10:59:16;;;;;;;6.80;3.13;;;;;;;6.46;83.62;100309.59;5049099;28;20045;-89
2022/01/29 11:01:57;;;;;;;5.78;2.65;;;;;;;6.55;83.14;100295.25;5060653;28;20044;-89
2022/01/29 11:04:31;;;;;;;6.95;2.95;;;;;;;6.62;82.88;100316.63;5053350;28;20096;-89
2022/01/29 11:07:30;;;;;;;5.95;3.00;;;;;;;6.71;83.05;100279.69;5056069;28;20025;-89
2022/01/29 11:10:01;;;;;;;5.65;2.38;;;;;;;6.71;82.56;100282.28;5063903;28;20032;-87
2022/01/29 11:12:31;;;;;;;4.45;2.40;;;;;;;6.76;82.65;100272.50;5060735;28;20028;-88
2022/01/29 11:15:05;;;;;;;8.07;2.50;;;;;;;6.82;82.06;100259.13;5043211;28;20061;-89
2022/01/29 11:17:31;;;;;;;5.50;2.90;;;;;;;6.81;82.45;100262.66;5050206;28;20033;-88
2022/01/29 11:19:58;;;;;;;5.18;2.55;;;;;;;6.85;82.22;100261.56;5038902;28;20044;-84
2022/01/29 11:23:22;;;;;;;6.38;2.72;;;;;;;6.85;82.16;100269.38;5042861;28;20041;-87
2022/01/29 11:25:59;;;;;;;5.78;2.25;;;;;;;6.83;81.99;100246.97;4961525;28;20096;-89
2022/01/29 11:28:27;;;;;;;4.55;2.58;;;;;;;6.79;81.62;100235.84;4988838;28;20082;-88
2022/01/29 11:31:28;;;;;;;3.55;2.05;;;;;;;6.85;81.72;100225.09;4992921;28;20054;-87
2022/01/29 11:34:04;;;;;;;4.90;2.13;;;;;;;6.83;81.42;100232.16;4973138;28;20189;-87
2022/01/29 11:37:10;;;;;;;4.10;2.10;;;;;;;6.86;82.06;100229.41;4968785;28;20191;-87
2022/01/29 11:39:36;;;;;;;4.82;2.35;;;;;;;6.85;81.75;100237.28;4957791;28;20051;-88
2022/01/29 11:42:10;;;;;;;4.20;1.92;;;;;;;6.86;81.30;100231.13;4935356;29;20080;-88
2022/01/29 11:44:50;;;;;;;4.50;2.25;;;;;;;6.91;80.86;100206.53;4940308;28;20071;-87
2022/01/29 11:47:30;;;;;;;4.20;1.92;;;;;;;6.90;80.93;100210.06;4934208;29;20053;-88
2022/01/29 11:50:26;;;;;;;3.30;1.80;;;;;;;6.89;81.50;100182.28;4946953;28;20207;-88
2022/01/29 11:52:55;;;;;;;3.88;2.35;;;;;;;6.89;81.42;100171.88;4929427;28;20385;-87
2022/01/29 11:55:37;;;;;;;;;;;;;;;6.91;81.77;100183.06;4944987;29;20279;-87
2022/01/29 11:58:20;;;;;;;3.10;1.77;;;;;;;6.97;80.63;100205.34;4941259;28;19949;-87